sensor_id;sensor_type;location;lat;lon;timestamp;temperature;humidity
9640;DHT22;51745;50.872;4.732;2023-05-21T00:01:44;13.60;99.90
9640;DHT22;51745;50.872;4.732;2023-05-21T00:04:34;13.40;99.90
9640;DHT22;51745;50.872;4.732;2023-05-21T00:07:21;13.40;99.90
9640;DHT22;51745;50.872;4.732;2023-05-21T00:10:11;13.30;99.90
9640;DHT22;51745;50.872;4.732;2023-05-21T00:12:58;13.30;99.90
9640;DHT22;51745;50.872;4.732;2023-05-21T00:15:47;13.30;99.90
9640;DHT22;51745;50.872;4.732;2023-05-21T00:18:35;13.10;99.90
9640;DHT22;51745;50.872;4.732;2023-05-21T00:21:24;13.20;99.90
9640;DHT22;51745;50.872;4.732;2023-05-21T00:24:12;13.30;99.90
9640;DHT22;51745;50.872;4.732;2023-05-21T00:26:59;13.00;99.90
9640;DHT22;51745;50.872;4.732;2023-05-21T00:29:47;12.90;99.90
9640;DHT22;51745;50.872;4.732;2023-05-21T00:32:36;12.90;99.90
9640;DHT22;51745;50.872;4.732;2023-05-21T00:35:24;12.80;99.90
9640;DHT22;51745;50.872;4.732;2023-05-21T00:38:12;12.80;99.90
9640;DHT22;51745;50.872;4.732;2023-05-21T00:41:00;12.70;99.90
9640;DHT22;51745;50.872;4.732;2023-05-21T00:43:47;12.70;99.90
9640;DHT22;51745;50.872;4.732;2023-05-21T00:46:35;12.70;99.90
9640;DHT22;51745;50.872;4.732;2023-05-21T00:49:23;12.70;99.90
9640;DHT22;51745;50.872;4.732;2023-05-21T00:52:11;12.60;99.90
9640;DHT22;51745;50.872;4.732;2023-05-21T00:54:59;12.60;99.90
9640;DHT22;51745;50.872;4.732;2023-05-21T00:57:49;12.60;99.90
9640;DHT22;51745;50.872;4.732;2023-05-21T01:00:36;12.60;99.90
9640;DHT22;51745;50.872;4.732;2023-05-21T01:03:25;12.50;99.90
9640;DHT22;51745;50.872;4.732;2023-05-21T01:06:14;12.40;99.90
9640;DHT22;51745;50.872;4.732;2023-05-21T01:09:02;12.40;99.90
9640;DHT22;51745;50.872;4.732;2023-05-21T01:11:51;12.30;99.90
9640;DHT22;51745;50.872;4.732;2023-05-21T01:14:39;12.20;99.90
9640;DHT22;51745;50.872;4.732;2023-05-21T01:17:27;12.70;99.90
9640;DHT22;51745;50.872;4.732;2023-05-21T01:20:15;12.20;99.90
9640;DHT22;51745;50.872;4.732;2023-05-21T01:23:05;12.00;99.90
9640;DHT22;51745;50.872;4.732;2023-05-21T01:25:53;12.10;99.90
9640;DHT22;51745;50.872;4.732;2023-05-21T01:28:43;12.20;99.90
9640;DHT22;51745;50.872;4.732;2023-05-21T01:31:33;12.10;99.90
9640;DHT22;51745;50.872;4.732;2023-05-21T01:34:22;12.20;99.90
9640;DHT22;51745;50.872;4.732;2023-05-21T01:37:13;12.00;99.90
9640;DHT22;51745;50.872;4.732;2023-05-21T01:40:07;12.00;99.90
9640;DHT22;51745;50.872;4.732;2023-05-21T01:42:55;11.90;99.90
9640;DHT22;51745;50.872;4.732;2023-05-21T01:45:43;11.90;99.90
9640;DHT22;51745;50.872;4.732;2023-05-21T01:48:31;11.80;99.90
9640;DHT22;51745;50.872;4.732;2023-05-21T01:51:20;11.80;99.90
9640;DHT22;51745;50.872;4.732;2023-05-21T01:54:08;11.80;99.90
9640;DHT22;51745;50.872;4.732;2023-05-21T01:56:57;11.70;99.90
9640;DHT22;51745;50.872;4.732;2023-05-21T01:59:44;11.50;99.90
9640;DHT22;51745;50.872;4.732;2023-05-21T02:02:32;11.70;99.90
9640;DHT22;51745;50.872;4.732;2023-05-21T02:05:20;11.60;99.90
9640;DHT22;51745;50.872;4.732;2023-05-21T02:08:07;11.60;99.90
9640;DHT22;51745;50.872;4.732;2023-05-21T02:10:54;11.50;99.90
9640;DHT22;51745;50.872;4.732;2023-05-21T02:13:43;11.50;99.90
9640;DHT22;51745;50.872;4.732;2023-05-21T02:16:31;11.50;99.90
9640;DHT22;51745;50.872;4.732;2023-05-21T02:19:18;11.50;99.90
9640;DHT22;51745;50.872;4.732;2023-05-21T02:22:06;11.50;99.90
9640;DHT22;51745;50.872;4.732;2023-05-21T02:24:53;11.40;99.90
9640;DHT22;51745;50.872;4.732;2023-05-21T02:27:41;11.40;99.90
9640;DHT22;51745;50.872;4.732;2023-05-21T02:30:30;11.40;99.90
9640;DHT22;51745;50.872;4.732;2023-05-21T02:33:18;11.40;99.90
9640;DHT22;51745;50.872;4.732;2023-05-21T02:36:06;11.40;99.90
9640;DHT22;51745;50.872;4.732;2023-05-21T02:38:58;11.30;99.90
9640;DHT22;51745;50.872;4.732;2023-05-21T02:41:47;11.40;99.90
9640;DHT22;51745;50.872;4.732;2023-05-21T02:44:34;11.30;99.90
9640;DHT22;51745;50.872;4.732;2023-05-21T02:47:23;11.40;99.90
9640;DHT22;51745;50.872;4.732;2023-05-21T02:50:12;11.40;99.90
9640;DHT22;51745;50.872;4.732;2023-05-21T02:53:04;11.40;99.90
9640;DHT22;51745;50.872;4.732;2023-05-21T02:55:54;11.40;99.90
9640;DHT22;51745;50.872;4.732;2023-05-21T02:58:43;11.40;99.90
9640;DHT22;51745;50.872;4.732;2023-05-21T03:01:30;11.40;99.90
9640;DHT22;51745;50.872;4.732;2023-05-21T03:04:19;11.30;99.90
9640;DHT22;51745;50.872;4.732;2023-05-21T03:07:07;11.30;99.90
9640;DHT22;51745;50.872;4.732;2023-05-21T03:09:55;11.30;99.90
9640;DHT22;51745;50.872;4.732;2023-05-21T03:12:45;11.70;99.90
9640;DHT22;51745;50.872;4.732;2023-05-21T03:15:32;11.30;99.90
9640;DHT22;51745;50.872;4.732;2023-05-21T03:18:21;11.20;99.90
9640;DHT22;51745;50.872;4.732;2023-05-21T03:21:11;11.10;99.90
9640;DHT22;51745;50.872;4.732;2023-05-21T03:24:00;11.20;99.90
9640;DHT22;51745;50.872;4.732;2023-05-21T03:26:48;11.10;99.90
9640;DHT22;51745;50.872;4.732;2023-05-21T03:29:36;11.10;99.90
9640;DHT22;51745;50.872;4.732;2023-05-21T03:32:26;11.10;99.90
9640;DHT22;51745;50.872;4.732;2023-05-21T03:35:13;11.20;99.90
9640;DHT22;51745;50.872;4.732;2023-05-21T03:38:02;11.10;99.90
9640;DHT22;51745;50.872;4.732;2023-05-21T03:40:50;11.10;99.90
9640;DHT22;51745;50.872;4.732;2023-05-21T03:43:38;11.10;99.90
9640;DHT22;51745;50.872;4.732;2023-05-21T03:46:25;11.10;99.90
9640;DHT22;51745;50.872;4.732;2023-05-21T03:49:39;11.10;99.90
9640;DHT22;51745;50.872;4.732;2023-05-21T03:52:27;11.10;99.90
9640;DHT22;51745;50.872;4.732;2023-05-21T03:55:16;11.10;99.90
9640;DHT22;51745;50.872;4.732;2023-05-21T03:58:03;11.40;99.90
9640;DHT22;51745;50.872;4.732;2023-05-21T04:00:52;11.10;99.90
9640;DHT22;51745;50.872;4.732;2023-05-21T04:03:39;11.00;99.90
9640;DHT22;51745;50.872;4.732;2023-05-21T04:06:28;11.00;99.90
9640;DHT22;51745;50.872;4.732;2023-05-21T04:09:16;11.00;99.90
9640;DHT22;51745;50.872;4.732;2023-05-21T04:12:05;11.00;99.90
9640;DHT22;51745;50.872;4.732;2023-05-21T04:14:54;11.00;99.90
9640;DHT22;51745;50.872;4.732;2023-05-21T04:17:42;11.00;99.90
9640;DHT22;51745;50.872;4.732;2023-05-21T04:20:30;11.00;99.90
9640;DHT22;51745;50.872;4.732;2023-05-21T04:23:18;11.00;99.90
9640;DHT22;51745;50.872;4.732;2023-05-21T04:26:09;11.00;99.90
9640;DHT22;51745;50.872;4.732;2023-05-21T04:29:03;11.10;99.90
9640;DHT22;51745;50.872;4.732;2023-05-21T04:31:50;11.10;99.90
9640;DHT22;51745;50.872;4.732;2023-05-21T04:34:40;11.10;99.90
9640;DHT22;51745;50.872;4.732;2023-05-21T04:37:28;11.10;99.90
9640;DHT22;51745;50.872;4.732;2023-05-21T04:40:16;11.10;99.90
9640;DHT22;51745;50.872;4.732;2023-05-21T04:43:10;11.20;99.90
9640;DHT22;51745;50.872;4.732;2023-05-21T04:45:58;11.20;99.90
9640;DHT22;51745;50.872;4.732;2023-05-21T04:48:46;11.20;99.90
9640;DHT22;51745;50.872;4.732;2023-05-21T04:51:37;11.20;99.90
9640;DHT22;51745;50.872;4.732;2023-05-21T04:54:24;11.20;99.90
9640;DHT22;51745;50.872;4.732;2023-05-21T04:57:12;11.20;99.90
9640;DHT22;51745;50.872;4.732;2023-05-21T05:00:00;12.50;99.90
9640;DHT22;51745;50.872;4.732;2023-05-21T05:02:56;11.30;99.90
9640;DHT22;51745;50.872;4.732;2023-05-21T05:05:45;11.30;99.90
9640;DHT22;51745;50.872;4.732;2023-05-21T05:08:33;11.30;99.90
9640;DHT22;51745;50.872;4.732;2023-05-21T05:11:22;11.30;99.90
9640;DHT22;51745;50.872;4.732;2023-05-21T05:14:09;11.30;99.90
9640;DHT22;51745;50.872;4.732;2023-05-21T05:16:57;11.20;99.90
9640;DHT22;51745;50.872;4.732;2023-05-21T05:19:48;11.50;99.90
9640;DHT22;51745;50.872;4.732;2023-05-21T05:22:35;11.50;99.90
9640;DHT22;51745;50.872;4.732;2023-05-21T05:25:24;11.50;99.90
9640;DHT22;51745;50.872;4.732;2023-05-21T05:28:11;11.50;99.90
9640;DHT22;51745;50.872;4.732;2023-05-21T05:30:58;11.60;99.90
9640;DHT22;51745;50.872;4.732;2023-05-21T05:33:46;11.60;99.90
9640;DHT22;51745;50.872;4.732;2023-05-21T05:36:36;11.60;99.90
9640;DHT22;51745;50.872;4.732;2023-05-21T05:39:23;11.70;99.90
9640;DHT22;51745;50.872;4.732;2023-05-21T05:42:11;11.70;99.90
9640;DHT22;51745;50.872;4.732;2023-05-21T05:44:58;11.80;99.90
9640;DHT22;51745;50.872;4.732;2023-05-21T05:47:46;11.80;99.90
9640;DHT22;51745;50.872;4.732;2023-05-21T05:50:33;11.90;99.90
9640;DHT22;51745;50.872;4.732;2023-05-21T05:53:23;12.00;99.90
9640;DHT22;51745;50.872;4.732;2023-05-21T05:56:11;12.10;99.90
9640;DHT22;51745;50.872;4.732;2023-05-21T05:58:59;12.10;99.90
9640;DHT22;51745;50.872;4.732;2023-05-21T06:01:47;12.10;99.90
9640;DHT22;51745;50.872;4.732;2023-05-21T06:04:38;12.20;99.90
9640;DHT22;51745;50.872;4.732;2023-05-21T06:07:26;12.10;99.90
9640;DHT22;51745;50.872;4.732;2023-05-21T06:10:16;12.30;99.90
9640;DHT22;51745;50.872;4.732;2023-05-21T06:13:05;12.30;99.90
9640;DHT22;51745;50.872;4.732;2023-05-21T06:15:53;12.30;99.90
9640;DHT22;51745;50.872;4.732;2023-05-21T06:18:40;12.40;99.90
9640;DHT22;51745;50.872;4.732;2023-05-21T06:21:28;12.40;99.90
9640;DHT22;51745;50.872;4.732;2023-05-21T06:24:16;12.50;99.90
9640;DHT22;51745;50.872;4.732;2023-05-21T06:27:05;12.50;99.90
9640;DHT22;51745;50.872;4.732;2023-05-21T06:29:53;12.60;99.90
9640;DHT22;51745;50.872;4.732;2023-05-21T06:32:41;11.10;99.90
9640;DHT22;51745;50.872;4.732;2023-05-21T06:35:29;12.80;99.90
9640;DHT22;51745;50.872;4.732;2023-05-21T06:38:17;12.80;99.90
9640;DHT22;51745;50.872;4.732;2023-05-21T06:41:05;12.80;99.90
9640;DHT22;51745;50.872;4.732;2023-05-21T06:44:06;12.90;99.90
9640;DHT22;51745;50.872;4.732;2023-05-21T06:46:59;13.00;99.90
9640;DHT22;51745;50.872;4.732;2023-05-21T06:49:47;13.10;99.90
9640;DHT22;51745;50.872;4.732;2023-05-21T06:52:35;13.20;99.90
9640;DHT22;51745;50.872;4.732;2023-05-21T06:55:25;13.30;99.90
9640;DHT22;51745;50.872;4.732;2023-05-21T06:58:29;13.40;99.90
9640;DHT22;51745;50.872;4.732;2023-05-21T07:01:18;13.60;99.90
9640;DHT22;51745;50.872;4.732;2023-05-21T07:04:07;13.70;99.90
9640;DHT22;51745;50.872;4.732;2023-05-21T07:06:55;13.60;99.90
9640;DHT22;51745;50.872;4.732;2023-05-21T07:09:43;13.80;99.90
9640;DHT22;51745;50.872;4.732;2023-05-21T07:12:30;13.90;99.90
9640;DHT22;51745;50.872;4.732;2023-05-21T07:15:18;14.10;99.90
9640;DHT22;51745;50.872;4.732;2023-05-21T07:18:07;14.20;99.90
9640;DHT22;51745;50.872;4.732;2023-05-21T07:20:55;14.30;99.90
9640;DHT22;51745;50.872;4.732;2023-05-21T07:23:44;14.60;99.90
9640;DHT22;51745;50.872;4.732;2023-05-21T07:26:32;14.70;99.90
9640;DHT22;51745;50.872;4.732;2023-05-21T07:29:28;14.70;99.90
9640;DHT22;51745;50.872;4.732;2023-05-21T07:32:16;14.80;99.90
9640;DHT22;51745;50.872;4.732;2023-05-21T07:35:06;14.80;99.90
9640;DHT22;51745;50.872;4.732;2023-05-21T07:37:54;15.40;99.90
9640;DHT22;51745;50.872;4.732;2023-05-21T07:40:43;15.00;99.90
9640;DHT22;51745;50.872;4.732;2023-05-21T07:43:31;15.20;99.90
9640;DHT22;51745;50.872;4.732;2023-05-21T07:46:18;15.30;99.90
9640;DHT22;51745;50.872;4.732;2023-05-21T07:49:10;15.40;99.90
9640;DHT22;51745;50.872;4.732;2023-05-21T07:52:05;15.40;99.90
9640;DHT22;51745;50.872;4.732;2023-05-21T07:54:53;15.30;99.90
9640;DHT22;51745;50.872;4.732;2023-05-21T07:57:41;17.60;99.90
9640;DHT22;51745;50.872;4.732;2023-05-21T08:00:40;15.40;99.90
9640;DHT22;51745;50.872;4.732;2023-05-21T08:03:29;15.50;99.90
9640;DHT22;51745;50.872;4.732;2023-05-21T08:06:17;15.40;99.90
9640;DHT22;51745;50.872;4.732;2023-05-21T08:09:05;15.80;99.90
9640;DHT22;51745;50.872;4.732;2023-05-21T08:11:53;15.90;99.90
9640;DHT22;51745;50.872;4.732;2023-05-21T08:14:41;16.00;99.90
9640;DHT22;51745;50.872;4.732;2023-05-21T08:17:30;16.20;99.90
9640;DHT22;51745;50.872;4.732;2023-05-21T08:20:18;16.20;99.90
9640;DHT22;51745;50.872;4.732;2023-05-21T08:23:07;16.20;99.90
9640;DHT22;51745;50.872;4.732;2023-05-21T08:26:01;16.30;99.90
9640;DHT22;51745;50.872;4.732;2023-05-21T08:28:49;16.10;99.90
9640;DHT22;51745;50.872;4.732;2023-05-21T08:31:37;16.40;99.90
9640;DHT22;51745;50.872;4.732;2023-05-21T08:34:26;16.40;99.90
9640;DHT22;51745;50.872;4.732;2023-05-21T08:37:30;16.30;99.90
9640;DHT22;51745;50.872;4.732;2023-05-21T08:40:31;16.40;99.90
9640;DHT22;51745;50.872;4.732;2023-05-21T08:43:20;16.70;99.90
9640;DHT22;51745;50.872;4.732;2023-05-21T08:46:09;16.80;99.90
9640;DHT22;51745;50.872;4.732;2023-05-21T08:48:58;16.80;99.90
9640;DHT22;51745;50.872;4.732;2023-05-21T08:51:48;16.80;99.90
9640;DHT22;51745;50.872;4.732;2023-05-21T08:54:37;16.70;99.90
9640;DHT22;51745;50.872;4.732;2023-05-21T08:57:25;16.70;99.90
9640;DHT22;51745;50.872;4.732;2023-05-21T09:00:16;16.60;99.90
9640;DHT22;51745;50.872;4.732;2023-05-21T09:03:06;16.80;99.90
9640;DHT22;51745;50.872;4.732;2023-05-21T09:05:57;16.80;99.90
9640;DHT22;51745;50.872;4.732;2023-05-21T09:08:48;17.00;99.90
9640;DHT22;51745;50.872;4.732;2023-05-21T09:11:54;17.90;99.90
9640;DHT22;51745;50.872;4.732;2023-05-21T09:14:42;17.00;99.90
9640;DHT22;51745;50.872;4.732;2023-05-21T09:17:35;17.00;99.90
9640;DHT22;51745;50.872;4.732;2023-05-21T09:20:39;17.20;99.90
9640;DHT22;51745;50.872;4.732;2023-05-21T09:23:29;17.40;99.90
9640;DHT22;51745;50.872;4.732;2023-05-21T09:26:16;17.60;99.90
9640;DHT22;51745;50.872;4.732;2023-05-21T09:29:05;17.90;99.90
9640;DHT22;51745;50.872;4.732;2023-05-21T09:31:52;18.00;99.90
9640;DHT22;51745;50.872;4.732;2023-05-21T09:34:42;18.60;99.90
9640;DHT22;51745;50.872;4.732;2023-05-21T09:37:30;17.80;99.90
9640;DHT22;51745;50.872;4.732;2023-05-21T09:40:22;17.80;99.90
9640;DHT22;51745;50.872;4.732;2023-05-21T09:43:12;18.20;99.90
9640;DHT22;51745;50.872;4.732;2023-05-21T09:45:59;18.00;99.90
9640;DHT22;51745;50.872;4.732;2023-05-21T09:48:50;18.10;99.90
9640;DHT22;51745;50.872;4.732;2023-05-21T09:51:39;18.30;99.90
9640;DHT22;51745;50.872;4.732;2023-05-21T09:54:31;18.20;99.90
9640;DHT22;51745;50.872;4.732;2023-05-21T09:57:23;18.40;99.90
9640;DHT22;51745;50.872;4.732;2023-05-21T10:00:16;19.30;99.90
9640;DHT22;51745;50.872;4.732;2023-05-21T10:03:08;19.10;99.90
9640;DHT22;51745;50.872;4.732;2023-05-21T10:05:56;19.00;99.90
9640;DHT22;51745;50.872;4.732;2023-05-21T10:08:47;19.00;99.90
9640;DHT22;51745;50.872;4.732;2023-05-21T10:11:38;19.10;99.90
9640;DHT22;51745;50.872;4.732;2023-05-21T10:14:26;19.20;99.90
9640;DHT22;51745;50.872;4.732;2023-05-21T10:17:17;19.20;99.90
9640;DHT22;51745;50.872;4.732;2023-05-21T10:20:06;19.20;99.90
9640;DHT22;51745;50.872;4.732;2023-05-21T10:22:56;19.40;99.90
9640;DHT22;51745;50.872;4.732;2023-05-21T10:25:46;19.50;99.90
9640;DHT22;51745;50.872;4.732;2023-05-21T10:28:35;20.10;99.90
9640;DHT22;51745;50.872;4.732;2023-05-21T10:31:23;19.70;99.90
9640;DHT22;51745;50.872;4.732;2023-05-21T10:34:12;19.50;99.90
9640;DHT22;51745;50.872;4.732;2023-05-21T10:37:00;19.20;99.90
9640;DHT22;51745;50.872;4.732;2023-05-21T10:39:48;19.20;99.90
9640;DHT22;51745;50.872;4.732;2023-05-21T10:43:01;19.20;99.90
9640;DHT22;51745;50.872;4.732;2023-05-21T10:45:56;19.10;99.90
9640;DHT22;51745;50.872;4.732;2023-05-21T10:48:57;19.10;99.90
9640;DHT22;51745;50.872;4.732;2023-05-21T10:51:50;19.20;99.90
9640;DHT22;51745;50.872;4.732;2023-05-21T10:54:45;19.10;99.90
9640;DHT22;51745;50.872;4.732;2023-05-21T10:57:44;19.30;99.90
9640;DHT22;51745;50.872;4.732;2023-05-21T11:00:35;19.50;99.90
9640;DHT22;51745;50.872;4.732;2023-05-21T11:03:24;19.40;99.90
9640;DHT22;51745;50.872;4.732;2023-05-21T11:06:14;19.40;99.90
9640;DHT22;51745;50.872;4.732;2023-05-21T11:09:10;19.30;99.90
9640;DHT22;51745;50.872;4.732;2023-05-21T11:11:58;19.30;99.90
9640;DHT22;51745;50.872;4.732;2023-05-21T11:14:54;19.50;99.90
9640;DHT22;51745;50.872;4.732;2023-05-21T11:17:44;19.70;99.90
9640;DHT22;51745;50.872;4.732;2023-05-21T11:20:33;20.30;99.90
9640;DHT22;51745;50.872;4.732;2023-05-21T11:23:21;19.70;99.90
9640;DHT22;51745;50.872;4.732;2023-05-21T11:26:14;21.10;99.90
9640;DHT22;51745;50.872;4.732;2023-05-21T11:29:07;19.90;99.90
9640;DHT22;51745;50.872;4.732;2023-05-21T11:31:58;20.00;99.90
9640;DHT22;51745;50.872;4.732;2023-05-21T11:34:50;19.70;99.90
9640;DHT22;51745;50.872;4.732;2023-05-21T11:37:40;19.60;99.90
9640;DHT22;51745;50.872;4.732;2023-05-21T11:40:32;19.70;99.90
9640;DHT22;51745;50.872;4.732;2023-05-21T11:43:19;19.90;99.90
9640;DHT22;51745;50.872;4.732;2023-05-21T11:46:08;20.30;99.90
9640;DHT22;51745;50.872;4.732;2023-05-21T11:48:56;20.40;99.90
9640;DHT22;51745;50.872;4.732;2023-05-21T11:51:47;20.40;99.90
9640;DHT22;51745;50.872;4.732;2023-05-21T11:54:38;20.40;99.90
9640;DHT22;51745;50.872;4.732;2023-05-21T11:57:26;20.40;99.90
9640;DHT22;51745;50.872;4.732;2023-05-21T12:00:16;20.40;99.90
9640;DHT22;51745;50.872;4.732;2023-05-21T12:03:05;20.50;99.90
9640;DHT22;51745;50.872;4.732;2023-05-21T12:06:03;20.50;99.90
9640;DHT22;51745;50.872;4.732;2023-05-21T12:08:53;20.50;99.90
9640;DHT22;51745;50.872;4.732;2023-05-21T12:11:44;21.00;99.90
9640;DHT22;51745;50.872;4.732;2023-05-21T12:14:32;21.30;99.90
9640;DHT22;51745;50.872;4.732;2023-05-21T12:17:20;20.90;99.90
9640;DHT22;51745;50.872;4.732;2023-05-21T12:20:09;20.90;99.90
9640;DHT22;51745;50.872;4.732;2023-05-21T12:23:02;20.40;99.90
9640;DHT22;51745;50.872;4.732;2023-05-21T12:25:51;20.50;99.90
9640;DHT22;51745;50.872;4.732;2023-05-21T12:28:39;20.70;99.90
9640;DHT22;51745;50.872;4.732;2023-05-21T12:31:28;20.90;99.90
9640;DHT22;51745;50.872;4.732;2023-05-21T12:37:21;21.20;99.90
9640;DHT22;51745;50.872;4.732;2023-05-21T12:40:10;20.50;99.90
9640;DHT22;51745;50.872;4.732;2023-05-21T12:43:00;20.90;99.90
9640;DHT22;51745;50.872;4.732;2023-05-21T12:45:47;21.00;99.90
9640;DHT22;51745;50.872;4.732;2023-05-21T12:48:35;21.00;99.90
9640;DHT22;51745;50.872;4.732;2023-05-21T12:51:24;21.10;99.90
9640;DHT22;51745;50.872;4.732;2023-05-21T12:54:12;21.50;99.90
9640;DHT22;51745;50.872;4.732;2023-05-21T12:57:07;20.40;99.90
9640;DHT22;51745;50.872;4.732;2023-05-21T12:59:56;21.90;99.90
9640;DHT22;51745;50.872;4.732;2023-05-21T13:02:44;22.30;99.90
9640;DHT22;51745;50.872;4.732;2023-05-21T13:05:38;22.60;99.90
9640;DHT22;51745;50.872;4.732;2023-05-21T13:08:26;22.10;99.90
9640;DHT22;51745;50.872;4.732;2023-05-21T13:11:14;22.40;99.90
9640;DHT22;51745;50.872;4.732;2023-05-21T13:14:04;22.30;99.90
9640;DHT22;51745;50.872;4.732;2023-05-21T13:16:54;21.80;99.90
9640;DHT22;51745;50.872;4.732;2023-05-21T13:19:42;22.40;99.90
9640;DHT22;51745;50.872;4.732;2023-05-21T13:22:31;22.40;99.90
9640;DHT22;51745;50.872;4.732;2023-05-21T13:25:20;20.70;99.90
9640;DHT22;51745;50.872;4.732;2023-05-21T13:28:14;22.50;99.90
9640;DHT22;51745;50.872;4.732;2023-05-21T13:31:03;22.50;99.90
9640;DHT22;51745;50.872;4.732;2023-05-21T13:33:52;22.20;99.90
9640;DHT22;51745;50.872;4.732;2023-05-21T13:36:41;22.30;99.90
9640;DHT22;51745;50.872;4.732;2023-05-21T13:39:29;22.10;99.90
9640;DHT22;51745;50.872;4.732;2023-05-21T13:42:28;22.00;99.90
9640;DHT22;51745;50.872;4.732;2023-05-21T13:45:17;21.80;99.90
9640;DHT22;51745;50.872;4.732;2023-05-21T13:48:05;22.30;99.90
9640;DHT22;51745;50.872;4.732;2023-05-21T13:50:55;22.40;99.90
9640;DHT22;51745;50.872;4.732;2023-05-21T13:53:43;22.60;99.90
9640;DHT22;51745;50.872;4.732;2023-05-21T13:56:31;22.30;99.90
9640;DHT22;51745;50.872;4.732;2023-05-21T13:59:20;22.60;99.90
9640;DHT22;51745;50.872;4.732;2023-05-21T14:02:08;22.80;99.90
9640;DHT22;51745;50.872;4.732;2023-05-21T14:04:57;22.70;99.90
9640;DHT22;51745;50.872;4.732;2023-05-21T14:07:46;22.70;99.90
9640;DHT22;51745;50.872;4.732;2023-05-21T14:10:34;22.90;99.90
9640;DHT22;51745;50.872;4.732;2023-05-21T14:13:23;23.10;99.90
9640;DHT22;51745;50.872;4.732;2023-05-21T14:16:11;22.90;99.90
9640;DHT22;51745;50.872;4.732;2023-05-21T14:19:00;23.20;99.90
9640;DHT22;51745;50.872;4.732;2023-05-21T14:21:50;23.10;99.90
9640;DHT22;51745;50.872;4.732;2023-05-21T14:24:40;22.80;99.90
9640;DHT22;51745;50.872;4.732;2023-05-21T14:27:28;22.70;99.90
9640;DHT22;51745;50.872;4.732;2023-05-21T14:30:15;22.60;99.90
9640;DHT22;51745;50.872;4.732;2023-05-21T14:33:03;22.50;99.90
9640;DHT22;51745;50.872;4.732;2023-05-21T14:35:51;22.80;99.90
9640;DHT22;51745;50.872;4.732;2023-05-21T14:38:39;22.90;99.90
9640;DHT22;51745;50.872;4.732;2023-05-21T14:41:31;22.70;99.90
9640;DHT22;51745;50.872;4.732;2023-05-21T14:44:19;22.50;99.90
9640;DHT22;51745;50.872;4.732;2023-05-21T14:47:06;23.10;99.90
9640;DHT22;51745;50.872;4.732;2023-05-21T14:49:56;23.00;99.90
9640;DHT22;51745;50.872;4.732;2023-05-21T14:52:43;20.90;99.90
9640;DHT22;51745;50.872;4.732;2023-05-21T14:55:31;23.10;99.90
9640;DHT22;51745;50.872;4.732;2023-05-21T14:58:24;22.70;99.90
9640;DHT22;51745;50.872;4.732;2023-05-21T15:01:12;22.60;99.90
9640;DHT22;51745;50.872;4.732;2023-05-21T15:04:00;22.50;99.90
9640;DHT22;51745;50.872;4.732;2023-05-21T15:06:49;22.50;99.90
9640;DHT22;51745;50.872;4.732;2023-05-21T15:09:36;24.70;99.90
9640;DHT22;51745;50.872;4.732;2023-05-21T15:12:24;23.00;99.90
9640;DHT22;51745;50.872;4.732;2023-05-21T15:15:14;22.60;99.90
9640;DHT22;51745;50.872;4.732;2023-05-21T15:18:02;23.20;99.90
9640;DHT22;51745;50.872;4.732;2023-05-21T15:20:49;23.30;99.90
9640;DHT22;51745;50.872;4.732;2023-05-21T15:23:38;22.30;99.90
9640;DHT22;51745;50.872;4.732;2023-05-21T15:26:26;23.50;99.90
9640;DHT22;51745;50.872;4.732;2023-05-21T15:29:14;23.20;99.90
9640;DHT22;51745;50.872;4.732;2023-05-21T15:32:04;23.30;99.90
9640;DHT22;51745;50.872;4.732;2023-05-21T15:34:56;23.40;99.90
9640;DHT22;51745;50.872;4.732;2023-05-21T15:38:02;24.20;99.90
9640;DHT22;51745;50.872;4.732;2023-05-21T15:40:53;24.00;99.90
9640;DHT22;51745;50.872;4.732;2023-05-21T15:43:53;23.30;99.90
9640;DHT22;51745;50.872;4.732;2023-05-21T15:46:41;23.50;99.90
9640;DHT22;51745;50.872;4.732;2023-05-21T15:49:31;23.50;99.90
9640;DHT22;51745;50.872;4.732;2023-05-21T15:52:19;23.70;99.90
9640;DHT22;51745;50.872;4.732;2023-05-21T15:55:08;23.80;99.90
9640;DHT22;51745;50.872;4.732;2023-05-21T15:57:55;23.30;99.90
9640;DHT22;51745;50.872;4.732;2023-05-21T16:00:46;25.10;99.90
9640;DHT22;51745;50.872;4.732;2023-05-21T16:03:35;23.40;99.90
9640;DHT22;51745;50.872;4.732;2023-05-21T16:06:24;23.30;99.90
9640;DHT22;51745;50.872;4.732;2023-05-21T16:09:13;23.40;99.90
9640;DHT22;51745;50.872;4.732;2023-05-21T16:12:02;23.10;99.90
9640;DHT22;51745;50.872;4.732;2023-05-21T16:14:50;23.10;99.90
9640;DHT22;51745;50.872;4.732;2023-05-21T16:17:38;23.20;99.90
9640;DHT22;51745;50.872;4.732;2023-05-21T16:20:26;23.20;99.90
9640;DHT22;51745;50.872;4.732;2023-05-21T16:23:17;23.20;99.90
9640;DHT22;51745;50.872;4.732;2023-05-21T16:26:05;23.10;99.90
9640;DHT22;51745;50.872;4.732;2023-05-21T16:29:00;23.10;99.90
9640;DHT22;51745;50.872;4.732;2023-05-21T16:31:48;23.20;99.90
9640;DHT22;51745;50.872;4.732;2023-05-21T16:34:36;22.90;99.90
9640;DHT22;51745;50.872;4.732;2023-05-21T16:37:25;22.60;99.90
9640;DHT22;51745;50.872;4.732;2023-05-21T16:40:17;22.80;99.90
9640;DHT22;51745;50.872;4.732;2023-05-21T16:43:28;22.90;99.90
9640;DHT22;51745;50.872;4.732;2023-05-21T16:46:17;22.80;99.90
9640;DHT22;51745;50.872;4.732;2023-05-21T16:49:07;22.10;99.90
9640;DHT22;51745;50.872;4.732;2023-05-21T16:51:55;23.00;99.90
9640;DHT22;51745;50.872;4.732;2023-05-21T16:54:43;23.10;99.90
9640;DHT22;51745;50.872;4.732;2023-05-21T16:57:36;22.90;99.90
9640;DHT22;51745;50.872;4.732;2023-05-21T17:00:23;23.20;99.90
9640;DHT22;51745;50.872;4.732;2023-05-21T17:03:13;23.10;99.90
9640;DHT22;51745;50.872;4.732;2023-05-21T17:06:01;23.10;99.90
9640;DHT22;51745;50.872;4.732;2023-05-21T17:08:49;23.20;99.90
9640;DHT22;51745;50.872;4.732;2023-05-21T17:11:37;23.40;99.90
9640;DHT22;51745;50.872;4.732;2023-05-21T17:14:26;22.90;99.90
9640;DHT22;51745;50.872;4.732;2023-05-21T17:17:20;23.00;99.90
9640;DHT22;51745;50.872;4.732;2023-05-21T17:20:08;22.90;99.90
9640;DHT22;51745;50.872;4.732;2023-05-21T17:22:57;23.30;99.90
9640;DHT22;51745;50.872;4.732;2023-05-21T17:25:45;22.80;99.90
9640;DHT22;51745;50.872;4.732;2023-05-21T17:28:33;22.80;99.90
9640;DHT22;51745;50.872;4.732;2023-05-21T17:31:23;22.60;99.90
9640;DHT22;51745;50.872;4.732;2023-05-21T17:34:11;22.50;99.90
9640;DHT22;51745;50.872;4.732;2023-05-21T17:36:58;22.60;99.90
9640;DHT22;51745;50.872;4.732;2023-05-21T17:39:46;22.60;99.90
9640;DHT22;51745;50.872;4.732;2023-05-21T17:42:36;21.90;99.90
9640;DHT22;51745;50.872;4.732;2023-05-21T17:45:24;22.70;99.90
9640;DHT22;51745;50.872;4.732;2023-05-21T17:48:13;22.20;99.90
9640;DHT22;51745;50.872;4.732;2023-05-21T17:51:01;22.50;99.90
9640;DHT22;51745;50.872;4.732;2023-05-21T17:53:48;22.40;99.90
9640;DHT22;51745;50.872;4.732;2023-05-21T17:56:38;22.40;99.90
9640;DHT22;51745;50.872;4.732;2023-05-21T17:59:30;22.30;99.90
9640;DHT22;51745;50.872;4.732;2023-05-21T18:02:19;22.30;99.90
9640;DHT22;51745;50.872;4.732;2023-05-21T18:05:10;22.20;99.90
9640;DHT22;51745;50.872;4.732;2023-05-21T18:07:58;22.20;99.90
9640;DHT22;51745;50.872;4.732;2023-05-21T18:10:46;22.00;99.90